createdAt,value
2023-05-21T00:00:47.745Z,69.8
2023-05-21T00:01:47.757Z,69.7
2023-05-21T00:02:47.852Z,69.8
2023-05-21T00:03:47.928Z,70.0
2023-05-21T00:04:47.750Z,69.8
2023-05-21T00:05:47.876Z,69.9
2023-05-21T00:06:47.721Z,69.9
2023-05-21T00:07:47.748Z,70.0
2023-05-21T00:08:47.931Z,69.9
2023-05-21T00:09:47.712Z,70.0
2023-05-21T00:10:47.740Z,69.9
2023-05-21T00:11:47.762Z,69.9
2023-05-21T00:12:47.698Z,70.0
2023-05-21T00:13:47.819Z,70.0
2023-05-21T00:14:47.786Z,70.1
2023-05-21T00:15:47.713Z,70.1
2023-05-21T00:16:47.932Z,70.2
2023-05-21T00:17:47.780Z,70.1
2023-05-21T00:18:47.802Z,70.3
2023-05-21T00:19:47.730Z,70.1
2023-05-21T00:20:47.737Z,70.2
2023-05-21T00:21:47.748Z,70.3
2023-05-21T00:22:47.746Z,70.2
2023-05-21T00:23:47.777Z,70.3
2023-05-21T00:24:47.712Z,70.3
2023-05-21T00:25:47.698Z,70.3
2023-05-21T00:26:47.755Z,70.2
2023-05-21T00:27:47.683Z,70.3
2023-05-21T00:28:47.752Z,70.2
2023-05-21T00:29:47.749Z,70.3
2023-05-21T00:30:47.851Z,70.3
2023-05-21T00:31:47.811Z,70.2
2023-05-21T00:32:47.794Z,70.3
2023-05-21T00:33:47.785Z,70.4
2023-05-21T00:34:47.723Z,70.3
2023-05-21T00:35:47.715Z,70.3
2023-05-21T00:36:47.733Z,70.3
2023-05-21T00:37:47.766Z,70.4
2023-05-21T00:38:47.709Z,70.4
2023-05-21T00:39:47.689Z,70.4
2023-05-21T00:40:47.712Z,70.4
2023-05-21T00:41:47.852Z,70.4
2023-05-21T00:42:47.705Z,70.6
2023-05-21T00:43:47.676Z,70.5
2023-05-21T00:44:47.702Z,70.5
2023-05-21T00:45:47.705Z,70.5
2023-05-21T00:46:47.675Z,70.6
2023-05-21T00:47:47.730Z,70.6
2023-05-21T00:48:47.789Z,70.6
2023-05-21T00:49:47.689Z,70.6
2023-05-21T00:50:47.674Z,70.8
2023-05-21T00:51:47.695Z,70.7
2023-05-21T00:52:47.840Z,70.9
2023-05-21T00:53:47.857Z,70.8
2023-05-21T00:54:47.694Z,70.9
2023-05-21T00:55:47.651Z,71.0
2023-05-21T00:56:47.683Z,71.0
2023-05-21T00:57:47.702Z,71.1
2023-05-21T00:58:47.654Z,71.2
2023-05-21T00:59:47.659Z,71.0
2023-05-21T01:00:47.688Z,71.0
2023-05-21T01:01:47.806Z,71.0
2023-05-21T01:02:47.884Z,71.1
2023-05-21T01:03:47.989Z,71.0
2023-05-21T01:04:47.735Z,71.0
2023-05-21T01:05:47.666Z,71.0
2023-05-21T01:06:47.633Z,71.0
2023-05-21T01:07:47.666Z,71.0
2023-05-21T01:08:47.734Z,71.0
2023-05-21T01:09:47.653Z,71.0
2023-05-21T01:10:47.633Z,71.0
2023-05-21T01:11:47.655Z,71.0
2023-05-21T01:12:47.727Z,71.1
2023-05-21T01:13:47.682Z,71.0
2023-05-21T01:14:47.615Z,71.1
2023-05-21T01:15:47.629Z,71.1
2023-05-21T01:16:47.646Z,71.1
2023-05-21T01:17:47.800Z,71.1
2023-05-21T01:18:47.726Z,71.1
2023-05-21T01:19:47.749Z,71.2
2023-05-21T01:20:47.620Z,71.1
2023-05-21T01:21:47.621Z,71.2
2023-05-21T01:22:47.657Z,71.2
2023-05-21T01:23:47.674Z,71.1
2023-05-21T01:24:47.754Z,71.1
2023-05-21T01:25:47.616Z,71.2
2023-05-21T01:26:47.832Z,71.3
2023-05-21T01:27:47.648Z,71.2
2023-05-21T01:28:47.628Z,71.2
2023-05-21T01:29:47.683Z,71.3
2023-05-21T01:30:47.639Z,71.3
2023-05-21T01:31:47.583Z,71.3
2023-05-21T01:32:47.770Z,71.3
2023-05-21T01:33:47.669Z,71.3
2023-05-21T01:34:47.635Z,71.3
2023-05-21T01:35:47.680Z,71.4
2023-05-21T01:36:47.593Z,71.4
2023-05-21T01:37:47.713Z,71.3
2023-05-21T01:38:47.641Z,71.3
2023-05-21T01:39:47.603Z,71.3
2023-05-21T01:40:47.650Z,71.4
2023-05-21T01:41:47.591Z,71.4
2023-05-21T01:42:47.595Z,71.4
2023-05-21T01:43:47.610Z,71.4
2023-05-21T01:44:47.622Z,71.5
2023-05-21T01:45:47.615Z,71.4
2023-05-21T01:46:47.681Z,71.5
2023-05-21T01:47:47.594Z,71.5
2023-05-21T01:48:47.895Z,71.5
2023-05-21T01:49:47.572Z,71.5
2023-05-21T01:50:47.604Z,71.6
2023-05-21T01:51:47.615Z,71.6
2023-05-21T01:52:47.597Z,71.5
2023-05-21T01:53:47.612Z,71.5
2023-05-21T01:54:47.560Z,71.6
2023-05-21T01:55:47.592Z,71.5
2023-05-21T01:56:47.556Z,71.6
2023-05-21T01:57:47.632Z,71.7
2023-05-21T01:58:47.643Z,71.6
2023-05-21T01:59:47.683Z,71.5
2023-05-21T02:00:47.589Z,71.6
2023-05-21T02:01:47.637Z,71.6
2023-05-21T02:02:47.692Z,71.6
2023-05-21T02:03:47.661Z,71.6
2023-05-21T02:04:47.595Z,71.6
2023-05-21T02:05:47.536Z,71.6
2023-05-21T02:06:47.551Z,71.7
2023-05-21T02:07:47.613Z,71.8
2023-05-21T02:08:47.580Z,71.7
2023-05-21T02:09:47.620Z,71.6
2023-05-21T02:10:47.749Z,71.6
2023-05-21T02:11:47.566Z,71.7
2023-05-21T02:12:47.532Z,71.7
2023-05-21T02:13:47.574Z,71.7
2023-05-21T02:14:47.582Z,71.7
2023-05-21T02:15:47.595Z,71.7
2023-05-21T02:16:47.566Z,71.7
2023-05-21T02:17:47.627Z,71.6
2023-05-21T02:18:47.562Z,71.6
2023-05-21T02:19:47.571Z,71.6
2023-05-21T02:20:47.589Z,71.6
2023-05-21T02:21:47.731Z,71.6
2023-05-21T02:22:47.532Z,71.6
2023-05-21T02:23:47.537Z,71.6
2023-05-21T02:24:47.596Z,71.6
2023-05-21T02:25:47.516Z,71.6
2023-05-21T02:26:47.580Z,71.6
2023-05-21T02:27:47.575Z,71.6
2023-05-21T02:28:47.576Z,71.6
2023-05-21T02:29:47.558Z,71.6
2023-05-21T02:30:47.558Z,71.5
2023-05-21T02:31:47.519Z,71.5
2023-05-21T02:32:47.712Z,71.5
2023-05-21T02:33:47.632Z,71.6
2023-05-21T02:34:47.554Z,71.5
2023-05-21T02:35:47.535Z,71.5
2023-05-21T02:36:47.515Z,71.5
2023-05-21T02:37:47.603Z,71.5
2023-05-21T02:38:47.539Z,71.5
2023-05-21T02:39:47.530Z,71.5
2023-05-21T02:40:47.517Z,71.5
2023-05-21T02:41:47.518Z,71.5
2023-05-21T02:42:47.540Z,71.5
2023-05-21T02:43:47.815Z,71.5
2023-05-21T02:44:47.557Z,71.5
2023-05-21T02:45:47.640Z,71.5
2023-05-21T02:46:47.469Z,71.4
2023-05-21T02:47:47.607Z,71.4
2023-05-21T02:48:47.654Z,71.5
2023-05-21T02:49:47.995Z,71.4
2023-05-21T02:50:47.550Z,71.4
2023-05-21T02:51:47.543Z,71.4
2023-05-21T02:52:47.505Z,71.4
2023-05-21T02:53:47.470Z,71.4
2023-05-21T02:54:47.610Z,71.4
2023-05-21T02:55:47.546Z,71.4
2023-05-21T02:56:47.488Z,71.4
2023-05-21T02:57:47.477Z,71.4
2023-05-21T02:58:47.507Z,71.4
2023-05-21T02:59:47.553Z,71.4
2023-05-21T03:00:47.480Z,71.4
2023-05-21T03:01:50.735Z,71.3
2023-05-21T03:02:47.605Z,71.3
2023-05-21T03:03:47.547Z,71.3
2023-05-21T03:04:47.525Z,71.3
2023-05-21T03:05:47.654Z,71.3
2023-05-21T03:06:47.506Z,71.3
2023-05-21T03:07:47.525Z,71.3
2023-05-21T03:08:47.561Z,71.2
2023-05-21T03:09:47.455Z,71.3
2023-05-21T03:10:47.526Z,71.2
2023-05-21T03:11:47.520Z,71.2
2023-05-21T03:12:47.532Z,71.2
2023-05-21T03:13:47.546Z,71.2
2023-05-21T03:14:47.525Z,71.2
2023-05-21T03:15:47.540Z,71.1
2023-05-21T03:16:47.629Z,71.1
2023-05-21T03:17:47.598Z,71.1
2023-05-21T03:18:47.545Z,71.1
2023-05-21T03:19:47.486Z,71.1
2023-05-21T03:20:47.492Z,71.1
2023-05-21T03:21:47.429Z,71.1
2023-05-21T03:22:47.493Z,71.1
2023-05-21T03:23:47.451Z,71.0
2023-05-21T03:24:47.466Z,71.0
2023-05-21T03:25:47.526Z,71.0
2023-05-21T03:26:47.518Z,71.0
2023-05-21T03:27:47.471Z,71.0
2023-05-21T03:28:47.424Z,71.0
2023-05-21T03:29:47.405Z,70.9
2023-05-21T03:30:47.424Z,70.9
2023-05-21T03:31:47.519Z,70.9
2023-05-21T03:32:47.599Z,70.9
2023-05-21T03:33:47.439Z,70.9
2023-05-21T03:34:47.569Z,70.9
2023-05-21T03:35:47.390Z,70.8
2023-05-21T03:36:47.446Z,70.8
2023-05-21T03:37:47.492Z,70.7
2023-05-21T03:38:47.656Z,70.7
2023-05-21T03:39:47.406Z,70.7
2023-05-21T03:40:47.427Z,70.8
2023-05-21T03:41:47.502Z,70.7
2023-05-21T03:42:47.437Z,70.7
2023-05-21T03:43:47.416Z,70.7
2023-05-21T03:44:47.382Z,70.7
2023-05-21T03:45:47.503Z,70.6
2023-05-21T03:46:47.429Z,70.5
2023-05-21T03:47:47.439Z,70.6
2023-05-21T03:48:47.418Z,70.6
2023-05-21T03:49:47.547Z,70.6
2023-05-21T03:50:47.495Z,70.5
2023-05-21T03:51:47.393Z,70.5
2023-05-21T03:52:47.405Z,70.5
2023-05-21T03:53:47.380Z,70.4
2023-05-21T03:54:47.452Z,70.4
2023-05-21T03:55:47.411Z,70.4
2023-05-21T03:56:47.490Z,70.4
2023-05-21T03:57:47.359Z,70.4
2023-05-21T03:58:47.402Z,70.4
2023-05-21T03:59:47.433Z,70.4
2023-05-21T04:00:47.712Z,70.3
2023-05-21T04:01:47.448Z,70.4
2023-05-21T04:02:47.527Z,70.3
2023-05-21T04:03:47.555Z,70.3
2023-05-21T04:04:47.440Z,70.3
2023-05-21T04:05:47.474Z,70.3
2023-05-21T04:06:47.416Z,70.3
2023-05-21T04:07:47.423Z,70.3
2023-05-21T04:08:47.391Z,70.2
2023-05-21T04:09:47.382Z,70.3
2023-05-21T04:10:47.435Z,70.3
2023-05-21T04:11:47.504Z,70.2
2023-05-21T04:12:47.361Z,70.2
2023-05-21T04:13:47.486Z,70.2
2023-05-21T04:14:47.368Z,70.2
2023-05-21T04:15:47.466Z,70.2
2023-05-21T04:16:47.386Z,70.2
2023-05-21T04:17:47.394Z,70.2
2023-05-21T04:18:47.494Z,70.2
2023-05-21T04:19:47.378Z,70.2
2023-05-21T04:20:47.363Z,70.1
2023-05-21T04:21:47.358Z,70.1
2023-05-21T04:22:47.552Z,70.1
2023-05-21T04:23:47.386Z,70.1
2023-05-21T04:24:47.347Z,70.0
2023-05-21T04:25:47.380Z,70.1
2023-05-21T04:26:47.341Z,70.1
2023-05-21T04:27:47.324Z,70.1
2023-05-21T04:28:47.376Z,70.1
2023-05-21T04:29:48.994Z,70.1
2023-05-21T04:30:47.315Z,70.1
2023-05-21T04:31:47.406Z,70.1
2023-05-21T04:32:47.405Z,70.1
2023-05-21T04:33:47.491Z,70.0
2023-05-21T04:34:47.383Z,70.0
2023-05-21T04:35:47.474Z,70.0
2023-05-21T04:36:47.367Z,70.0
2023-05-21T04:37:47.361Z,70.0
2023-05-21T04:38:47.376Z,70.0
2023-05-21T04:39:47.375Z,70.0
2023-05-21T04:40:47.431Z,69.9
2023-05-21T04:41:47.322Z,69.8
2023-05-21T04:42:47.382Z,69.8
2023-05-21T04:43:47.388Z,69.9
2023-05-21T04:44:47.381Z,69.9
2023-05-21T04:45:47.326Z,69.8
2023-05-21T04:46:47.362Z,69.8
2023-05-21T04:47:47.376Z,69.8
2023-05-21T04:48:47.438Z,69.8
2023-05-21T04:49:47.393Z,69.8
2023-05-21T04:50:47.338Z,69.8
2023-05-21T04:51:47.303Z,69.8
2023-05-21T04:52:47.312Z,69.6
2023-05-21T04:53:47.450Z,69.6
2023-05-21T04:54:47.325Z,69.6
2023-05-21T04:55:47.548Z,69.7
2023-05-21T04:56:47.341Z,69.6
2023-05-21T04:57:47.378Z,69.5
2023-05-21T04:58:47.301Z,69.4
2023-05-21T04:59:47.331Z,69.4
2023-05-21T05:00:47.468Z,69.4
2023-05-21T05:01:47.314Z,69.2
2023-05-21T05:02:47.404Z,69.3
2023-05-21T05:03:47.325Z,69.4
2023-05-21T05:04:47.282Z,69.4
2023-05-21T05:05:47.335Z,69.5
2023-05-21T05:06:47.509Z,69.3
2023-05-21T05:07:47.329Z,69.2
2023-05-21T05:08:47.278Z,69.3
2023-05-21T05:09:47.284Z,69.4
2023-05-21T05:10:47.327Z,69.4
2023-05-21T05:11:47.323Z,69.4
2023-05-21T05:12:47.337Z,69.3
2023-05-21T05:13:47.327Z,69.3
2023-05-21T05:14:47.260Z,69.3
2023-05-21T05:15:49.597Z,69.2
2023-05-21T05:16:47.315Z,69.1
2023-05-21T05:17:47.517Z,69.2
2023-05-21T05:18:47.309Z,69.1
2023-05-21T05:19:47.319Z,69.2
2023-05-21T05:20:47.412Z,68.9
2023-05-21T05:21:47.307Z,69.0
2023-05-21T05:22:47.294Z,69.1
2023-05-21T05:23:47.236Z,68.9
2023-05-21T05:24:47.277Z,69.0
2023-05-21T05:25:47.244Z,69.0
2023-05-21T05:26:47.257Z,68.9
2023-05-21T05:27:47.275Z,68.8
2023-05-21T05:28:47.399Z,68.9
2023-05-21T05:29:47.238Z,68.9
2023-05-21T05:30:47.276Z,68.9
2023-05-21T05:31:48.365Z,68.9
2023-05-21T05:32:47.297Z,68.9
2023-05-21T05:33:47.274Z,68.5
2023-05-21T05:34:47.316Z,68.6
2023-05-21T05:35:47.235Z,68.7
2023-05-21T05:36:47.262Z,68.7
2023-05-21T05:37:47.325Z,68.7
2023-05-21T05:38:47.235Z,68.7
2023-05-21T05:39:47.405Z,68.6
2023-05-21T05:40:47.202Z,68.6
2023-05-21T05:41:47.288Z,68.6
2023-05-21T05:42:47.246Z,68.5
2023-05-21T05:43:47.246Z,68.5
2023-05-21T05:44:47.236Z,68.5
2023-05-21T05:45:47.359Z,68.5
2023-05-21T05:46:47.325Z,68.4
2023-05-21T05:47:47.238Z,68.4
2023-05-21T05:48:47.261Z,68.4
2023-05-21T05:49:47.282Z,68.3
2023-05-21T05:50:47.378Z,68.3
2023-05-21T05:51:47.251Z,68.1
2023-05-21T05:52:47.302Z,68.2
2023-05-21T05:53:47.248Z,68.3
2023-05-21T05:54:47.240Z,68.3
2023-05-21T05:55:47.226Z,68.2
2023-05-21T05:56:47.310Z,68.0
2023-05-21T05:57:47.342Z,68.0
2023-05-21T05:58:47.178Z,67.8
2023-05-21T05:59:47.187Z,68.0
2023-05-21T06:00:47.285Z,68.0
2023-05-21T06:01:47.355Z,68.0
2023-05-21T06:02:47.316Z,67.9
2023-05-21T06:03:47.453Z,68.0
2023-05-21T06:04:47.245Z,67.9
2023-05-21T06:05:47.222Z,67.9
2023-05-21T06:06:47.264Z,67.8
2023-05-21T06:07:47.355Z,67.7
2023-05-21T06:08:47.201Z,67.8
2023-05-21T06:09:47.343Z,67.6
2023-05-21T06:10:47.271Z,67.4
2023-05-21T06:11:47.180Z,67.6
2023-05-21T06:12:47.369Z,67.6
2023-05-21T06:13:47.225Z,67.6
2023-05-21T06:14:47.245Z,67.6
2023-05-21T06:15:47.445Z,67.6
2023-05-21T06:16:47.208Z,67.6
2023-05-21T06:17:47.274Z,67.6
2023-05-21T06:18:47.206Z,67.6
2023-05-21T06:19:47.165Z,67.6
2023-05-21T06:20:47.261Z,67.4
2023-05-21T06:21:47.192Z,67.2
2023-05-21T06:22:47.289Z,67.2
2023-05-21T06:23:47.349Z,67.2
2023-05-21T06:24:47.268Z,67.2
2023-05-21T06:25:47.178Z,67.2
2023-05-21T06:26:47.221Z,66.9
2023-05-21T06:27:47.168Z,67.1
2023-05-21T06:28:47.209Z,66.8
2023-05-21T06:29:47.191Z,66.8
2023-05-21T06:30:47.328Z,66.9
2023-05-21T06:31:47.156Z,66.9
2023-05-21T06:32:47.244Z,66.9
2023-05-21T06:33:47.345Z,66.9
2023-05-21T06:34:47.249Z,66.9
2023-05-21T06:35:47.277Z,66.8
2023-05-21T06:36:47.147Z,66.8
2023-05-21T06:37:47.129Z,66.6
2023-05-21T06:38:47.146Z,66.6
2023-05-21T06:39:47.171Z,66.6
2023-05-21T06:40:47.176Z,66.5
2023-05-21T06:41:47.148Z,66.2
2023-05-21T06:42:47.194Z,65.5
2023-05-21T06:43:47.235Z,65.9
2023-05-21T06:44:47.199Z,65.7
2023-05-21T06:45:47.204Z,65.8
2023-05-21T06:46:47.228Z,65.9
2023-05-21T06:47:47.377Z,65.9
2023-05-21T06:48:47.164Z,65.8
2023-05-21T06:49:47.184Z,65.4
2023-05-21T06:50:47.136Z,65.5
2023-05-21T06:51:47.191Z,65.5
2023-05-21T06:52:47.220Z,65.5
2023-05-21T06:53:47.169Z,65.6
2023-05-21T06:54:47.244Z,65.5
2023-05-21T06:55:47.163Z,65.5
2023-05-21T06:56:47.145Z,65.5
2023-05-21T06:57:47.136Z,65.4
2023-05-21T06:58:47.167Z,65.3
2023-05-21T06:59:47.227Z,65.3
2023-05-21T07:00:47.200Z,65.3
2023-05-21T07:01:47.214Z,65.2
2023-05-21T07:02:47.280Z,65.2
2023-05-21T07:03:47.197Z,65.0
2023-05-21T07:04:47.162Z,65.0
2023-05-21T07:05:47.178Z,64.8
2023-05-21T07:06:47.171Z,64.7
2023-05-21T07:07:47.305Z,64.6
2023-05-21T07:08:47.110Z,64.6
2023-05-21T07:09:47.075Z,64.6
2023-05-21T07:10:47.154Z,64.6
2023-05-21T07:11:47.173Z,64.4
2023-05-21T07:12:47.141Z,64.3
2023-05-21T07:13:47.171Z,64.3
2023-05-21T07:14:47.108Z,64.2
2023-05-21T07:15:47.117Z,64.1
2023-05-21T07:16:47.122Z,64.0
2023-05-21T07:17:47.162Z,64.0
2023-05-21T07:18:47.468Z,63.9
2023-05-21T07:19:47.100Z,63.8
2023-05-21T07:20:47.180Z,63.7
2023-05-21T07:21:47.102Z,63.5
2023-05-21T07:22:47.105Z,63.4
2023-05-21T07:23:47.162Z,63.4
2023-05-21T07:24:47.075Z,63.5
2023-05-21T07:25:47.112Z,63.3
2023-05-21T07:26:47.232Z,63.0
2023-05-21T07:27:47.475Z,63.1
2023-05-21T07:28:47.228Z,63.0
2023-05-21T07:29:47.239Z,62.9
2023-05-21T07:30:47.120Z,63.0
2023-05-21T07:31:47.164Z,62.9
2023-05-21T07:32:47.119Z,62.8
2023-05-21T07:33:47.069Z,62.8
2023-05-21T07:34:47.075Z,62.8
2023-05-21T07:35:47.050Z,62.6
2023-05-21T07:36:47.094Z,62.2
2023-05-21T07:37:47.105Z,62.0
2023-05-21T07:38:47.101Z,61.6
2023-05-21T07:39:47.111Z,62.0
2023-05-21T07:40:47.195Z,62.1
2023-05-21T07:41:47.093Z,62.1
2023-05-21T07:42:47.086Z,61.9
2023-05-21T07:43:47.071Z,61.6
2023-05-21T07:44:47.034Z,61.9
2023-05-21T07:45:47.072Z,61.8
2023-05-21T07:46:47.091Z,61.6
2023-05-21T07:47:47.219Z,60.7
2023-05-21T07:48:47.144Z,61.2
2023-05-21T07:49:47.090Z,61.4
2023-05-21T07:50:47.061Z,61.5
2023-05-21T07:51:47.246Z,61.0
2023-05-21T07:52:47.137Z,60.5
2023-05-21T07:53:47.106Z,60.7
2023-05-21T07:54:47.096Z,60.3
2023-05-21T07:55:47.068Z,60.1
2023-05-21T07:56:47.085Z,60.3
2023-05-21T07:57:47.066Z,60.3
2023-05-21T07:58:47.070Z,60.5
2023-05-21T07:59:47.094Z,60.2
2023-05-21T08:00:47.060Z,60.2
2023-05-21T08:01:47.051Z,60.2
2023-05-21T08:02:47.345Z,60.3
2023-05-21T08:03:47.261Z,60.3
2023-05-21T08:04:47.442Z,60.2
2023-05-21T08:05:47.068Z,60.2
2023-05-21T08:06:47.021Z,60.1
2023-05-21T08:07:47.066Z,60.2
2023-05-21T08:08:47.081Z,60.2
2023-05-21T08:09:47.093Z,58.3
2023-05-21T08:10:47.030Z,59.5
2023-05-21T08:11:47.051Z,59.2
2023-05-21T08:12:47.050Z,59.0
2023-05-21T08:13:47.183Z,56.5
2023-05-21T08:14:47.041Z,57.6
2023-05-21T08:15:47.139Z,58.0
2023-05-21T08:16:47.112Z,58.5
2023-05-21T08:17:47.047Z,58.6
2023-05-21T08:18:47.151Z,58.7
2023-05-21T08:19:47.062Z,58.5
2023-05-21T08:20:47.052Z,58.5
2023-05-21T08:21:47.104Z,58.5
2023-05-21T08:22:47.028Z,58.5
2023-05-21T08:23:47.010Z,58.0
2023-05-21T08:24:47.208Z,57.5
2023-05-21T08:25:47.079Z,57.7
2023-05-21T08:26:47.088Z,57.6
2023-05-21T08:27:47.095Z,56.7
2023-05-21T08:28:47.074Z,55.2
2023-05-21T08:29:47.003Z,56.9
2023-05-21T08:30:47.116Z,57.2
2023-05-21T08:31:47.040Z,57.3
2023-05-21T08:32:47.192Z,56.9
2023-05-21T08:33:47.049Z,56.9
2023-05-21T08:34:47.006Z,57.0
2023-05-21T08:35:47.154Z,57.0
2023-05-21T08:36:47.022Z,57.0
2023-05-21T08:37:47.042Z,56.9
2023-05-21T08:38:47.079Z,57.0
2023-05-21T08:39:46.989Z,56.9
2023-05-21T08:40:47.007Z,56.7
2023-05-21T08:41:47.064Z,56.7
2023-05-21T08:42:47.005Z,56.6
2023-05-21T08:43:48.649Z,56.6
2023-05-21T08:44:46.967Z,55.1
2023-05-21T08:45:47.035Z,56.1
2023-05-21T08:46:47.049Z,55.0
2023-05-21T08:47:47.045Z,55.1
2023-05-21T08:48:47.038Z,53.7
2023-05-21T08:49:46.972Z,54.8
2023-05-21T08:50:47.029Z,55.0
2023-05-21T08:51:47.015Z,54.8
2023-05-21T08:52:46.990Z,54.2
2023-05-21T08:53:48.351Z,54.7
2023-05-21T08:54:46.955Z,53.8
2023-05-21T08:55:48.885Z,52.8
2023-05-21T08:56:46.977Z,53.9
2023-05-21T08:57:47.110Z,54.4
2023-05-21T08:58:46.974Z,53.4
2023-05-21T08:59:47.008Z,53.7
2023-05-21T09:00:47.029Z,53.7
2023-05-21T09:01:47.089Z,54.0
2023-05-21T09:02:47.012Z,54.1
2023-05-21T09:03:47.015Z,53.5
2023-05-21T09:04:47.118Z,53.3
2023-05-21T09:05:47.074Z,53.9
2023-05-21T09:06:46.971Z,52.9
2023-05-21T09:07:46.986Z,53.5
2023-05-21T09:08:47.055Z,53.6
2023-05-21T09:09:47.011Z,53.8
2023-05-21T09:10:46.990Z,53.6
2023-05-21T09:11:46.956Z,53.6
2023-05-21T09:12:47.098Z,53.6
2023-05-21T09:13:46.985Z,53.5
2023-05-21T09:14:46.992Z,53.5
2023-05-21T09:15:47.057Z,53.4
2023-05-21T09:16:46.978Z,53.5
2023-05-21T09:17:46.982Z,53.4
2023-05-21T09:18:48.444Z,53.4
2023-05-21T09:19:47.042Z,53.3
2023-05-21T09:20:46.997Z,53.0
2023-05-21T09:21:46.975Z,53.1
2023-05-21T09:22:46.963Z,53.2
2023-05-21T09:23:47.076Z,53.3
2023-05-21T09:24:46.988Z,53.2
2023-05-21T09:25:46.927Z,52.2
2023-05-21T09:26:46.908Z,51.2
2023-05-21T09:27:46.997Z,51.9
2023-05-21T09:28:46.970Z,52.0
2023-05-21T09:29:46.945Z,50.5
2023-05-21T09:30:46.952Z,51.0
2023-05-21T09:31:47.172Z,50.9
2023-05-21T09:32:47.055Z,50.2
2023-05-21T09:33:47.091Z,50.4
2023-05-21T09:34:46.925Z,50.5
2023-05-21T09:35:46.919Z,50.8
2023-05-21T09:36:46.912Z,50.5
2023-05-21T09:37:46.975Z,50.5
2023-05-21T09:38:46.919Z,51.0
2023-05-21T09:39:47.100Z,51.1
2023-05-21T09:40:46.937Z,51.2
2023-05-21T09:41:46.924Z,51.2
2023-05-21T09:42:47.003Z,51.1
2023-05-21T09:43:46.914Z,50.9
2023-05-21T09:44:46.957Z,50.9
2023-05-21T09:45:46.909Z,51.0
2023-05-21T09:46:46.933Z,50.9
2023-05-21T09:47:47.005Z,50.7
2023-05-21T09:48:46.937Z,50.8
2023-05-21T09:49:47.035Z,50.8
2023-05-21T09:50:47.044Z,50.7
2023-05-21T09:51:46.905Z,50.6
2023-05-21T09:52:46.890Z,50.7
2023-05-21T09:53:46.894Z,50.6
2023-05-21T09:54:47.053Z,50.0
2023-05-21T09:55:47.005Z,50.1
2023-05-21T09:56:46.922Z,50.0
2023-05-21T09:57:49.114Z,50.1
2023-05-21T09:58:46.915Z,50.2
2023-05-21T09:59:46.952Z,48.2
2023-05-21T10:00:46.907Z,48.2
2023-05-21T10:01:47.094Z,49.4
2023-05-21T10:02:47.016Z,49.6
2023-05-21T10:03:48.151Z,49.6
2023-05-21T10:04:47.012Z,49.5
2023-05-21T10:05:46.956Z,48.4
2023-05-21T10:06:46.926Z,48.0
2023-05-21T10:07:46.907Z,48.9
2023-05-21T10:08:46.883Z,49.2
2023-05-21T10:09:46.875Z,49.3
2023-05-21T10:10:46.898Z,49.1
2023-05-21T10:11:46.952Z,48.9
2023-05-21T10:12:47.062Z,48.9
2023-05-21T10:13:46.914Z,49.0
2023-05-21T10:14:46.876Z,49.1
2023-05-21T10:15:48.243Z,49.1
2023-05-21T10:16:47.016Z,49.0
2023-05-21T10:17:46.953Z,48.9
2023-05-21T10:18:46.947Z,49.0
2023-05-21T10:19:46.886Z,49.0
2023-05-21T10:20:47.004Z,48.0
2023-05-21T10:21:46.882Z,48.7
2023-05-21T10:22:46.905Z,48.7
2023-05-21T10:23:47.031Z,48.3
2023-05-21T10:24:46.924Z,48.4
2023-05-21T10:25:48.368Z,48.1
2023-05-21T10:26:46.896Z,48.2
2023-05-21T10:27:46.851Z,48.0
2023-05-21T10:28:46.886Z,48.0
2023-05-21T10:29:46.879Z,48.0
2023-05-21T10:30:46.894Z,48.0
2023-05-21T10:31:46.935Z,47.3
2023-05-21T10:32:47.061Z,47.3
2023-05-21T10:33:46.921Z,47.5
2023-05-21T10:34:47.065Z,47.7
2023-05-21T10:35:48.361Z,47.2
2023-05-21T10:36:46.892Z,45.8
2023-05-21T10:37:46.888Z,47.2
2023-05-21T10:38:46.892Z,47.3
2023-05-21T10:39:46.880Z,47.4
2023-05-21T10:40:46.919Z,47.4
2023-05-21T10:41:46.853Z,47.3
2023-05-21T10:42:46.937Z,47.3
2023-05-21T10:43:46.902Z,47.4
2023-05-21T10:44:46.924Z,47.3
2023-05-21T10:45:46.906Z,47.2
2023-05-21T10:46:49.392Z,47.2
2023-05-21T10:47:46.871Z,46.9
2023-05-21T10:48:48.226Z,47.0
2023-05-21T10:49:46.922Z,46.9
2023-05-21T10:50:46.813Z,45.4
2023-05-21T10:51:46.899Z,45.8
2023-05-21T10:52:47.025Z,46.4
2023-05-21T10:53:46.817Z,46.3
2023-05-21T10:54:46.920Z,46.6
2023-05-21T10:55:46.847Z,46.6
2023-05-21T10:56:46.869Z,46.7
2023-05-21T10:57:51.063Z,45.8
2023-05-21T10:58:46.824Z,44.4
2023-05-21T10:59:46.846Z,45.7
2023-05-21T11:00:46.848Z,44.8
2023-05-21T11:01:46.921Z,45.0
2023-05-21T11:02:46.924Z,45.4
2023-05-21T11:03:46.946Z,43.4
2023-05-21T11:04:46.856Z,43.8
2023-05-21T11:05:46.881Z,43.3
2023-05-21T11:06:46.841Z,43.5
2023-05-21T11:07:46.832Z,42.4
2023-05-21T11:08:46.836Z,43.5
2023-05-21T11:09:46.815Z,43.9
2023-05-21T11:10:46.835Z,44.3
2023-05-21T11:11:46.871Z,44.4
2023-05-21T11:12:46.906Z,44.1
2023-05-21T11:13:46.828Z,42.9
2023-05-21T11:14:46.860Z,43.5
2023-05-21T11:15:46.853Z,44.0
2023-05-21T11:16:46.903Z,44.1
2023-05-21T11:17:46.856Z,43.3
2023-05-21T11:18:46.978Z,43.2
2023-05-21T11:19:46.818Z,43.8
2023-05-21T11:20:46.840Z,43.7
2023-05-21T11:21:46.880Z,44.0
2023-05-21T11:22:51.245Z,43.2
2023-05-21T11:23:46.870Z,43.1
2023-05-21T11:24:47.794Z,42.1
2023-05-21T11:25:46.885Z,43.1
2023-05-21T11:26:46.853Z,43.7
2023-05-21T11:27:46.796Z,44.0
2023-05-21T11:28:46.860Z,44.1
2023-05-21T11:29:46.981Z,44.0
2023-05-21T11:30:46.794Z,44.0
2023-05-21T11:31:46.907Z,43.4
2023-05-21T11:32:46.834Z,43.8
2023-05-21T11:33:46.879Z,43.7
2023-05-21T11:34:46.846Z,43.8
2023-05-21T11:35:46.815Z,43.1
2023-05-21T11:36:46.834Z,43.9
2023-05-21T11:37:46.808Z,44.1
2023-05-21T11:38:46.811Z,44.2
2023-05-21T11:39:46.853Z,44.4
2023-05-21T11:40:46.912Z,44.5
2023-05-21T11:41:46.851Z,43.7
2023-05-21T11:42:47.980Z,44.0
2023-05-21T11:43:46.790Z,44.0
2023-05-21T11:44:48.332Z,44.0
2023-05-21T11:45:46.754Z,44.2
2023-05-21T11:46:46.796Z,44.3
2023-05-21T11:47:47.824Z,44.3
2023-05-21T11:48:46.840Z,43.4
2023-05-21T11:49:46.893Z,43.5
2023-05-21T11:50:46.828Z,43.6
2023-05-21T11:51:46.804Z,43.0
2023-05-21T11:52:46.873Z,43.7
2023-05-21T11:53:51.192Z,43.8
2023-05-21T11:54:46.789Z,44.0
2023-05-21T11:55:46.841Z,44.1
2023-05-21T11:56:46.792Z,44.2
2023-05-21T11:57:46.787Z,44.3
2023-05-21T11:58:46.829Z,44.3
2023-05-21T11:59:46.816Z,44.3
2023-05-21T12:00:48.398Z,44.2
2023-05-21T12:01:46.890Z,44.2
2023-05-21T12:02:47.097Z,44.3
2023-05-21T12:03:47.122Z,44.3
2023-05-21T12:04:46.814Z,44.3
2023-05-21T12:05:46.944Z,44.3
2023-05-21T12:06:46.813Z,44.2
2023-05-21T12:07:46.747Z,43.7
2023-05-21T12:08:46.800Z,43.9
2023-05-21T12:09:46.792Z,44.1
2023-05-21T12:10:46.702Z,44.0
2023-05-21T12:11:46.797Z,43.3
2023-05-21T12:12:54.697Z,42.8
2023-05-21T12:13:46.829Z,43.4
2023-05-21T12:14:46.849Z,43.4
2023-05-21T12:15:46.764Z,42.8
2023-05-21T12:16:46.859Z,43.4
2023-05-21T12:17:46.767Z,43.6
2023-05-21T12:18:46.847Z,43.8
2023-05-21T12:19:46.790Z,43.9
2023-05-21T12:20:46.783Z,44.0
2023-05-21T12:21:46.791Z,43.5
2023-05-21T12:22:46.775Z,43.0
2023-05-21T12:23:46.784Z,43.5
2023-05-21T12:24:46.765Z,42.8
2023-05-21T12:25:46.924Z,42.9
2023-05-21T12:26:46.788Z,42.8
2023-05-21T12:27:46.777Z,43.3
2023-05-21T12:28:46.798Z,43.6
2023-05-21T12:29:46.703Z,43.6
2023-05-21T12:30:46.752Z,43.4
2023-05-21T12:31:46.791Z,43.7
2023-05-21T12:32:46.854Z,43.5
2023-05-21T12:33:47.202Z,43.5
2023-05-21T12:34:46.814Z,43.6
2023-05-21T12:35:46.923Z,43.7
2023-05-21T12:36:46.965Z,43.1
2023-05-21T12:37:46.738Z,43.2
2023-05-21T12:38:46.687Z,43.4
2023-05-21T12:39:46.803Z,43.4
2023-05-21T12:40:46.814Z,42.8
2023-05-21T12:41:46.784Z,43.4
2023-05-21T12:42:46.759Z,43.7
2023-05-21T12:43:46.763Z,43.9
2023-05-21T12:44:46.906Z,43.9
2023-05-21T12:45:46.747Z,43.6
2023-05-21T12:46:46.785Z,42.7
2023-05-21T12:47:46.914Z,43.4
2023-05-21T12:48:46.761Z,43.1
2023-05-21T12:49:46.749Z,42.7
2023-05-21T12:50:46.733Z,42.2
2023-05-21T12:51:46.706Z,42.1
2023-05-21T12:52:46.788Z,42.5
2023-05-21T12:53:46.750Z,43.1
2023-05-21T12:54:46.808Z,42.9
2023-05-21T12:55:46.715Z,42.7
2023-05-21T12:56:46.803Z,42.9
2023-05-21T12:57:46.831Z,43.1
2023-05-21T12:58:47.334Z,43.2
2023-05-21T12:59:46.766Z,43.2
2023-05-21T13:00:46.727Z,43.4
2023-05-21T13:01:46.772Z,43.6
2023-05-21T13:02:46.796Z,43.3
2023-05-21T13:03:46.772Z,43.0
2023-05-21T13:04:46.706Z,43.4
2023-05-21T13:05:46.710Z,43.5
2023-05-21T13:06:46.662Z,43.5
2023-05-21T13:07:46.923Z,43.5
2023-05-21T13:08:46.776Z,43.5
2023-05-21T13:09:46.686Z,42.9
2023-05-21T13:10:46.681Z,43.5
2023-05-21T13:11:46.745Z,43.6
2023-05-21T13:12:46.738Z,43.7
2023-05-21T13:13:46.712Z,43.3
2023-05-21T13:14:46.716Z,42.7
2023-05-21T13:15:46.699Z,43.4
2023-05-21T13:16:46.665Z,43.5
2023-05-21T13:17:49.169Z,43.6
2023-05-21T13:18:46.888Z,43.6